sensor_id;sensor_type;location;lat;lon;timestamp;pressure;altitude;pressure_sealevel;temperature;humidity
35291;BME280;21411;50.024;19.220;2023-02-15T11:41:53;100265.11;;;7.88;100.00
35291;BME280;21411;50.024;19.220;2023-02-15T11:44:26;100261.13;;;7.96;100.00
35291;BME280;21411;50.024;19.220;2023-02-15T11:46:54;100259.16;;;7.96;100.00
35291;BME280;21411;50.024;19.220;2023-02-15T11:49:32;100252.16;;;7.98;100.00
35291;BME280;21411;50.024;19.220;2023-02-15T11:52:05;100251.72;;;7.96;100.00
35291;BME280;21411;50.024;19.220;2023-02-15T11:54:39;100250.66;;;7.96;100.00
35291;BME280;21411;50.024;19.220;2023-02-15T11:57:27;100247.45;;;7.97;100.00
35291;BME280;21411;50.024;19.220;2023-02-15T12:00:03;100243.96;;;7.96;100.00
35291;BME280;21411;50.024;19.220;2023-02-15T12:02:37;100236.11;;;7.97;100.00
35291;BME280;21411;50.024;19.220;2023-02-15T12:05:18;100233.79;;;7.98;100.00
35291;BME280;21411;50.024;19.220;2023-02-15T12:07:50;100231.73;;;7.96;100.00
35291;BME280;21411;50.024;19.220;2023-02-15T12:13:12;100227.30;;;8.01;100.00
35291;BME280;21411;50.024;19.220;2023-02-15T12:16:06;100222.84;;;8.02;100.00
35291;BME280;21411;50.024;19.220;2023-02-15T12:18:39;100219.10;;;8.03;100.00
35291;BME280;21411;50.024;19.220;2023-02-15T12:21:14;100218.40;;;8.02;100.00
35291;BME280;21411;50.024;19.220;2023-02-15T12:23:53;100215.86;;;8.04;100.00
35291;BME280;21411;50.024;19.220;2023-02-15T12:26:29;100211.25;;;8.04;100.00
35291;BME280;21411;50.024;19.220;2023-02-15T12:28:59;100212.42;;;8.01;100.00
35291;BME280;21411;50.024;19.220;2023-02-15T12:31:36;100210.94;;;7.99;100.00
35291;BME280;21411;50.024;19.220;2023-02-15T12:34:10;100213.52;;;8.00;100.00
35291;BME280;21411;50.024;19.220;2023-02-15T12:36:45;100213.52;;;8.05;100.00
35291;BME280;21411;50.024;19.220;2023-02-15T12:39:19;100209.25;;;8.11;100.00
35291;BME280;21411;50.024;19.220;2023-02-15T12:44:23;100201.79;;;8.21;100.00
35291;BME280;21411;50.024;19.220;2023-02-15T12:49:37;100194.79;;;8.23;100.00
35291;BME280;21411;50.024;19.220;2023-02-15T12:54:47;100185.42;;;8.32;100.00
35291;BME280;21411;50.024;19.220;2023-02-15T13:00:11;100178.89;;;8.36;100.00
35291;BME280;21411;50.024;19.220;2023-02-15T13:02:51;100175.14;;;8.32;100.00
35291;BME280;21411;50.024;19.220;2023-02-15T13:05:21;100167.16;;;8.32;100.00
35291;BME280;21411;50.024;19.220;2023-02-15T13:07:54;100164.51;;;8.37;100.00
35291;BME280;21411;50.024;19.220;2023-02-15T13:10:40;100161.77;;;8.40;100.00
35291;BME280;21411;50.024;19.220;2023-02-15T13:13:17;100156.04;;;8.41;100.00
35291;BME280;21411;50.024;19.220;2023-02-15T13:15:50;100154.64;;;8.41;100.00
35291;BME280;21411;50.024;19.220;2023-02-15T13:18:35;100155.01;;;8.41;100.00
35291;BME280;21411;50.024;19.220;2023-02-15T13:21:15;100154.39;;;8.43;100.00
35291;BME280;21411;50.024;19.220;2023-02-15T13:23:47;100152.15;;;8.46;100.00
35291;BME280;21411;50.024;19.220;2023-02-15T13:26:18;100149.02;;;8.49;100.00
35291;BME280;21411;50.024;19.220;2023-02-15T13:28:55;100148.98;;;8.50;100.00
35291;BME280;21411;50.024;19.220;2023-02-15T13:31:25;100143.54;;;8.49;100.00
35291;BME280;21411;50.024;19.220;2023-02-15T13:34:01;100138.70;;;8.50;100.00
35291;BME280;21411;50.024;19.220;2023-02-15T13:36:39;100140.19;;;8.53;100.00
35291;BME280;21411;50.024;19.220;2023-02-15T13:39:22;100136.58;;;8.54;100.00
35291;BME280;21411;50.024;19.220;2023-02-15T13:49:31;100136.36;;;8.55;100.00
35291;BME280;21411;50.024;19.220;2023-02-15T13:52:18;100132.99;;;8.55;100.00
35291;BME280;21411;50.024;19.220;2023-02-15T14:19:38;100113.15;;;8.42;100.00
35291;BME280;21411;50.024;19.220;2023-02-15T14:22:59;100108.59;;;8.41;100.00
35291;BME280;21411;50.024;19.220;2023-02-15T14:25:41;100104.60;;;8.39;100.00
35291;BME280;21411;50.024;19.220;2023-02-15T14:28:37;100109.06;;;8.37;100.00
35291;BME280;21411;50.024;19.220;2023-02-15T14:31:08;100106.86;;;8.35;100.00
35291;BME280;21411;50.024;19.220;2023-02-15T14:33:39;100103.22;;;8.33;100.00
35291;BME280;21411;50.024;19.220;2023-02-15T14:36:09;100100.14;;;8.30;100.00
35291;BME280;21411;50.024;19.220;2023-02-15T14:41:23;100096.30;;;8.25;100.00
35291;BME280;21411;50.024;19.220;2023-02-15T14:46:34;100094.86;;;8.16;100.00
35291;BME280;21411;50.024;19.220;2023-02-15T14:49:16;100092.59;;;8.11;100.00
35291;BME280;21411;50.024;19.220;2023-02-15T14:56:45;100088.61;;;7.95;100.00
35291;BME280;21411;50.024;19.220;2023-02-15T14:59:19;100086.90;;;7.89;100.00
35291;BME280;21411;50.024;19.220;2023-02-15T15:01:57;100086.05;;;7.83;100.00
35291;BME280;21411;50.024;19.220;2023-02-15T15:07:08;100089.86;;;7.72;100.00
35291;BME280;21411;50.024;19.220;2023-02-15T15:09:39;100088.73;;;7.64;100.00
35291;BME280;21411;50.024;19.220;2023-02-15T15:12:36;100086.89;;;7.56;100.00
35291;BME280;21411;50.024;19.220;2023-02-15T15:14:59;100084.92;;;7.47;100.00
35291;BME280;21411;50.024;19.220;2023-02-15T15:20:04;100085.73;;;7.30;100.00
35291;BME280;21411;50.024;19.220;2023-02-15T15:22:35;100085.91;;;7.15;100.00
35291;BME280;21411;50.024;19.220;2023-02-15T15:28:05;100081.47;;;6.85;100.00
35291;BME280;21411;50.024;19.220;2023-02-15T15:33:59;100076.70;;;6.64;100.00
35291;BME280;21411;50.024;19.220;2023-02-15T15:36:23;100074.11;;;6.52;100.00
35291;BME280;21411;50.024;19.220;2023-02-15T15:47:10;100069.86;;;6.02;100.00
35291;BME280;21411;50.024;19.220;2023-02-15T15:49:40;100069.69;;;5.90;100.00
35291;BME280;21411;50.024;19.220;2023-02-15T15:52:16;100070.54;;;5.79;100.00
35291;BME280;21411;50.024;19.220;2023-02-15T15:54:45;100070.55;;;5.67;100.00
35291;BME280;21411;50.024;19.220;2023-02-15T15:57:25;100068.92;;;5.57;100.00
35291;BME280;21411;50.024;19.220;2023-02-15T15:59:53;100066.77;;;5.45;100.00
35291;BME280;21411;50.024;19.220;2023-02-15T16:02:20;100065.30;;;5.35;100.00
35291;BME280;21411;50.024;19.220;2023-02-15T16:04:50;100069.09;;;5.32;100.00
35291;BME280;21411;50.024;19.220;2023-02-15T16:12:27;100069.15;;;5.04;100.00
35291;BME280;21411;50.024;19.220;2023-02-15T16:14:55;100070.64;;;4.95;100.00
35291;BME280;21411;50.024;19.220;2023-02-15T16:17:29;100073.68;;;4.86;100.00
35291;BME280;21411;50.024;19.220;2023-02-15T16:20:16;100071.48;;;4.76;100.00
35291;BME280;21411;50.024;19.220;2023-02-15T16:22:47;100073.52;;;4.65;100.00
35291;BME280;21411;50.024;19.220;2023-02-15T16:28:33;100070.17;;;4.45;100.00
35291;BME280;21411;50.024;19.220;2023-02-15T16:31:14;100074.41;;;4.36;100.00
35291;BME280;21411;50.024;19.220;2023-02-15T16:33:43;100073.23;;;4.27;100.00
35291;BME280;21411;50.024;19.220;2023-02-15T16:36:23;100072.40;;;4.17;100.00
35291;BME280;21411;50.024;19.220;2023-02-15T16:41:25;100070.58;;;3.96;100.00
35291;BME280;21411;50.024;19.220;2023-02-15T16:43:55;100070.67;;;3.85;100.00
35291;BME280;21411;50.024;19.220;2023-02-15T16:46:27;100076.52;;;3.75;100.00
35291;BME280;21411;50.024;19.220;2023-02-15T16:49:14;100076.89;;;3.65;100.00
35291;BME280;21411;50.024;19.220;2023-02-15T16:51:43;100075.58;;;3.54;100.00
35291;BME280;21411;50.024;19.220;2023-02-15T16:54:20;100079.81;;;3.44;100.00
35291;BME280;21411;50.024;19.220;2023-02-15T16:56:48;100078.08;;;3.34;100.00
35291;BME280;21411;50.024;19.220;2023-02-15T16:59:40;100074.70;;;3.26;100.00
35291;BME280;21411;50.024;19.220;2023-02-15T17:02:32;100073.80;;;3.20;100.00
35291;BME280;21411;50.024;19.220;2023-02-15T17:07:40;100077.77;;;3.05;100.00
35291;BME280;21411;50.024;19.220;2023-02-15T17:10:31;100078.45;;;2.97;100.00
35291;BME280;21411;50.024;19.220;2023-02-15T17:13:14;100077.92;;;2.87;100.00
35291;BME280;21411;50.024;19.220;2023-02-15T17:18:30;100072.42;;;2.71;100.00
35291;BME280;21411;50.024;19.220;2023-02-15T17:21:01;100072.00;;;2.64;100.00
35291;BME280;21411;50.024;19.220;2023-02-15T17:23:41;100075.63;;;2.57;100.00
35291;BME280;21411;50.024;19.220;2023-02-15T17:26:24;100076.25;;;2.52;100.00
35291;BME280;21411;50.024;19.220;2023-02-15T17:28:56;100073.20;;;2.45;100.00
35291;BME280;21411;50.024;19.220;2023-02-15T17:31:25;100074.71;;;2.38;100.00
35291;BME280;21411;50.024;19.220;2023-02-15T17:33:54;100073.09;;;2.31;100.00
35291;BME280;21411;50.024;19.220;2023-02-15T17:36:25;100076.52;;;2.24;100.00
35291;BME280;21411;50.024;19.220;2023-02-15T17:41:26;100076.91;;;2.10;100.00
35291;BME280;21411;50.024;19.220;2023-02-15T17:43:54;100079.46;;;2.04;100.00
35291;BME280;21411;50.024;19.220;2023-02-15T17:46:21;100075.02;;;1.96;100.00
35291;BME280;21411;50.024;19.220;2023-02-15T17:48:51;100071.07;;;1.91;100.00
35291;BME280;21411;50.024;19.220;2023-02-15T17:51:19;100069.21;;;1.85;100.00
35291;BME280;21411;50.024;19.220;2023-02-15T17:53:46;100071.04;;;1.80;100.00
35291;BME280;21411;50.024;19.220;2023-02-15T17:56:33;100067.80;;;1.73;100.00
35291;BME280;21411;50.024;19.220;2023-02-15T17:58:59;100069.29;;;1.67;100.00
35291;BME280;21411;50.024;19.220;2023-02-15T18:01:26;100073.23;;;1.60;100.00
35291;BME280;21411;50.024;19.220;2023-02-15T18:04:13;100069.13;;;1.51;100.00
35291;BME280;21411;50.024;19.220;2023-02-15T18:06:59;100071.67;;;1.45;100.00
35291;BME280;21411;50.024;19.220;2023-02-15T18:09:44;100073.14;;;1.40;100.00
35291;BME280;21411;50.024;19.220;2023-02-15T18:12:34;100073.20;;;1.35;100.00
35291;BME280;21411;50.024;19.220;2023-02-15T18:24:04;100075.02;;;1.16;100.00
35291;BME280;21411;50.024;19.220;2023-02-15T18:26:31;100074.39;;;1.08;100.00
35291;BME280;21411;50.024;19.220;2023-02-15T18:28:58;100074.77;;;1.05;100.00
35291;BME280;21411;50.024;19.220;2023-02-15T18:31:24;100070.42;;;1.02;100.00
35291;BME280;21411;50.024;19.220;2023-02-15T18:33:53;100068.36;;;0.99;100.00
35291;BME280;21411;50.024;19.220;2023-02-15T18:36:31;100065.95;;;0.95;100.00
35291;BME280;21411;50.024;19.220;2023-02-15T18:49:35;100063.86;;;0.78;100.00
35291;BME280;21411;50.024;19.220;2023-02-15T18:52:02;100066.17;;;0.73;100.00
35291;BME280;21411;50.024;19.220;2023-02-15T18:54:29;100066.21;;;0.69;100.00
35291;BME280;21411;50.024;19.220;2023-02-15T18:56:57;100070.09;;;0.66;100.00
35291;BME280;21411;50.024;19.220;2023-02-15T18:59:27;100072.92;;;0.61;100.00
35291;BME280;21411;50.024;19.220;2023-02-15T19:01:56;100072.27;;;0.58;100.00
35291;BME280;21411;50.024;19.220;2023-02-15T19:04:23;100068.95;;;0.57;100.00
35291;BME280;21411;50.024;19.220;2023-02-15T19:06:51;100067.91;;;0.55;100.00
35291;BME280;21411;50.024;19.220;2023-02-15T19:09:20;100066.56;;;0.50;100.00
35291;BME280;21411;50.024;19.220;2023-02-15T19:11:52;100067.66;;;0.44;100.00
35291;BME280;21411;50.024;19.220;2023-02-15T19:14:25;100071.39;;;0.37;100.00
35291;BME280;21411;50.024;19.220;2023-02-15T19:16:53;100072.48;;;0.31;100.00
35291;BME280;21411;50.024;19.220;2023-02-15T19:19:20;100073.41;;;0.26;100.00
35291;BME280;21411;50.024;19.220;2023-02-15T19:21:47;100071.69;;;0.22;100.00
35291;BME280;21411;50.024;19.220;2023-02-15T19:24:20;100072.59;;;0.17;100.00
35291;BME280;21411;50.024;19.220;2023-02-15T19:26:53;100074.71;;;0.14;100.00
35291;BME280;21411;50.024;19.220;2023-02-15T19:29:28;100075.26;;;0.11;100.00
35291;BME280;21411;50.024;19.220;2023-02-15T19:31:56;100074.25;;;0.06;100.00
35291;BME280;21411;50.024;19.220;2023-02-15T19:34:23;100069.55;;;0.02;100.00
35291;BME280;21411;50.024;19.220;2023-02-15T19:36:52;100068.19;;;-0.03;100.00
35291;BME280;21411;50.024;19.220;2023-02-15T19:39:27;100075.02;;;-0.04;100.00
35291;BME280;21411;50.024;19.220;2023-02-15T19:41:55;100070.32;;;-0.06;100.00
35291;BME280;21411;50.024;19.220;2023-02-15T19:44:22;100067.69;;;-0.06;100.00
35291;BME280;21411;50.024;19.220;2023-02-15T19:46:48;100066.65;;;-0.06;100.00
35291;BME280;21411;50.024;19.220;2023-02-15T19:49:50;100063.33;;;-0.06;100.00
35291;BME280;21411;50.024;19.220;2023-02-15T19:52:20;100064.89;;;-0.07;100.00
35291;BME280;21411;50.024;19.220;2023-02-15T19:54:49;100063.33;;;-0.07;100.00
35291;BME280;21411;50.024;19.220;2023-02-15T19:57:18;100064.19;;;-0.06;100.00
35291;BME280;21411;50.024;19.220;2023-02-15T19:59:45;100058.95;;;-0.05;100.00
35291;BME280;21411;50.024;19.220;2023-02-15T20:02:14;100054.23;;;-0.04;100.00
35291;BME280;21411;50.024;19.220;2023-02-15T20:04:42;100051.95;;;-0.04;100.00
35291;BME280;21411;50.024;19.220;2023-02-15T20:07:20;100053.20;;;-0.07;100.00
35291;BME280;21411;50.024;19.220;2023-02-15T20:09:47;100047.63;;;-0.09;100.00
35291;BME280;21411;50.024;19.220;2023-02-15T20:12:32;100045.91;;;-0.14;100.00
35291;BME280;21411;50.024;19.220;2023-02-15T20:25:30;100036.23;;;-0.30;100.00
35291;BME280;21411;50.024;19.220;2023-02-15T20:28:00;100032.95;;;-0.36;100.00
35291;BME280;21411;50.024;19.220;2023-02-15T20:30:29;100032.81;;;-0.43;100.00
35291;BME280;21411;50.024;19.220;2023-02-15T20:32:57;100026.56;;;-0.50;100.00
35291;BME280;21411;50.024;19.220;2023-02-15T20:45:55;100021.42;;;-0.66;100.00
35291;BME280;21411;50.024;19.220;2023-02-15T20:48:22;100019.51;;;-0.68;100.00
35291;BME280;21411;50.024;19.220;2023-02-15T20:50:49;100015.50;;;-0.68;100.00
35291;BME280;21411;50.024;19.220;2023-02-15T20:53:16;100012.36;;;-0.70;100.00
35291;BME280;21411;50.024;19.220;2023-02-15T20:55:43;100013.75;;;-0.71;100.00
35291;BME280;21411;50.024;19.220;2023-02-15T20:58:24;100016.02;;;-0.69;100.00
35291;BME280;21411;50.024;19.220;2023-02-15T21:01:10;100013.02;;;-0.61;100.00
35291;BME280;21411;50.024;19.220;2023-02-15T21:03:37;100012.83;;;-0.59;100.00
35291;BME280;21411;50.024;19.220;2023-02-15T21:06:04;100008.11;;;-0.55;100.00
35291;BME280;21411;50.024;19.220;2023-02-15T21:08:32;100004.92;;;-0.53;100.00
35291;BME280;21411;50.024;19.220;2023-02-15T21:10:59;100002.30;;;-0.53;100.00
35291;BME280;21411;50.024;19.220;2023-02-15T21:13:30;100001.45;;;-0.54;100.00
35291;BME280;21411;50.024;19.220;2023-02-15T21:15:59;100003.39;;;-0.57;100.00
35291;BME280;21411;50.024;19.220;2023-02-15T21:18:31;100003.58;;;-0.60;100.00
35291;BME280;21411;50.024;19.220;2023-02-15T21:21:01;100002.73;;;-0.62;100.00
35291;BME280;21411;50.024;19.220;2023-02-15T21:23:35;100002.38;;;-0.63;100.00
35291;BME280;21411;50.024;19.220;2023-02-15T21:26:02;100001.34;;;-0.66;100.00
35291;BME280;21411;50.024;19.220;2023-02-15T21:28:29;100000.67;;;-0.69;100.00
35291;BME280;21411;50.024;19.220;2023-02-15T21:30:57;99999.80;;;-0.71;100.00
35291;BME280;21411;50.024;19.220;2023-02-15T21:33:24;99999.30;;;-0.74;100.00
35291;BME280;21411;50.024;19.220;2023-02-15T21:35:56;99999.84;;;-0.78;100.00
35291;BME280;21411;50.024;19.220;2023-02-15T21:38:24;99996.90;;;-0.82;100.00
35291;BME280;21411;50.024;19.220;2023-02-15T21:40:54;99995.34;;;-0.85;100.00
35291;BME280;21411;50.024;19.220;2023-02-15T21:43:41;99995.16;;;-0.85;100.00
35291;BME280;21411;50.024;19.220;2023-02-15T21:46:26;99993.41;;;-0.84;100.00
35291;BME280;21411;50.024;19.220;2023-02-15T21:49:07;99994.09;;;-0.82;100.00
35291;BME280;21411;50.024;19.220;2023-02-15T21:51:36;99991.48;;;-0.82;100.00
35291;BME280;21411;50.024;19.220;2023-02-15T21:54:21;99993.22;;;-0.82;100.00
35291;BME280;21411;50.024;19.220;2023-02-15T21:56:48;99991.30;;;-0.83;100.00
35291;BME280;21411;50.024;19.220;2023-02-15T21:59:17;99990.27;;;-0.85;100.00
35291;BME280;21411;50.024;19.220;2023-02-15T22:01:47;99984.88;;;-0.87;100.00
35291;BME280;21411;50.024;19.220;2023-02-15T22:04:26;99979.99;;;-0.89;100.00
35291;BME280;21411;50.024;19.220;2023-02-15T22:06:53;99983.14;;;-0.91;100.00
35291;BME280;21411;50.024;19.220;2023-02-15T22:09:25;99980.72;;;-0.94;100.00
35291;BME280;21411;50.024;19.220;2023-02-15T22:11:53;99983.86;;;-0.96;100.00
35291;BME280;21411;50.024;19.220;2023-02-15T22:14:33;99984.40;;;-0.99;100.00
35291;BME280;21411;50.024;19.220;2023-02-15T22:17:03;99987.56;;;-1.03;100.00
35291;BME280;21411;50.024;19.220;2023-02-15T22:19:38;99987.40;;;-1.06;100.00
35291;BME280;21411;50.024;19.220;2023-02-15T22:22:05;99985.14;;;-1.08;100.00
35291;BME280;21411;50.024;19.220;2023-02-15T22:24:32;99981.48;;;-1.10;100.00
35291;BME280;21411;50.024;19.220;2023-02-15T22:26:59;99978.88;;;-1.13;100.00
35291;BME280;21411;50.024;19.220;2023-02-15T22:29:26;99972.44;;;-1.16;100.00
35291;BME280;21411;50.024;19.220;2023-02-15T22:31:52;99972.80;;;-1.19;100.00
35291;BME280;21411;50.024;19.220;2023-02-15T22:34:30;99972.45;;;-1.21;100.00
35291;BME280;21411;50.024;19.220;2023-02-15T22:36:57;99973.51;;;-1.23;100.00
35291;BME280;21411;50.024;19.220;2023-02-15T22:39:24;99975.60;;;-1.24;100.00
35291;BME280;21411;50.024;19.220;2023-02-15T22:41:52;99972.83;;;-1.25;100.00
35291;BME280;21411;50.024;19.220;2023-02-15T22:44:25;99971.25;;;-1.27;100.00
35291;BME280;21411;50.024;19.220;2023-02-15T22:46:54;99968.30;;;-1.28;100.00
35291;BME280;21411;50.024;19.220;2023-02-15T22:49:21;99968.98;;;-1.29;100.00
35291;BME280;21411;50.024;19.220;2023-02-15T22:51:49;99969.52;;;-1.30;100.00
35291;BME280;21411;50.024;19.220;2023-02-15T22:54:17;99965.52;;;-1.32;100.00
35291;BME280;21411;50.024;19.220;2023-02-15T22:56:47;99965.88;;;-1.33;100.00
35291;BME280;21411;50.024;19.220;2023-02-15T23:01:41;99971.28;;;-1.36;100.00
35291;BME280;21411;50.024;19.220;2023-02-15T23:04:23;99968.85;;;-1.37;100.00
35291;BME280;21411;50.024;19.220;2023-02-15T23:06:50;99968.51;;;-1.39;100.00
35291;BME280;21411;50.024;19.220;2023-02-15T23:09:19;99968.52;;;-1.39;100.00
35291;BME280;21411;50.024;19.220;2023-02-15T23:11:46;99968.50;;;-1.41;100.00
35291;BME280;21411;50.024;19.220;2023-02-15T23:14:23;99962.94;;;-1.41;100.00
35291;BME280;21411;50.024;19.220;2023-02-15T23:16:51;99962.41;;;-1.42;100.00
35291;BME280;21411;50.024;19.220;2023-02-15T23:19:18;99958.40;;;-1.43;100.00
35291;BME280;21411;50.024;19.220;2023-02-15T23:21:45;99957.02;;;-1.45;100.00
35291;BME280;21411;50.024;19.220;2023-02-15T23:24:19;99958.25;;;-1.46;100.00
35291;BME280;21411;50.024;19.220;2023-02-15T23:26:46;99960.34;;;-1.48;100.00
35291;BME280;21411;50.024;19.220;2023-02-15T23:29:19;99955.46;;;-1.51;100.00
35291;BME280;21411;50.024;19.220;2023-02-15T23:31:49;99952.16;;;-1.55;100.00
35291;BME280;21411;50.024;19.220;2023-02-15T23:34:26;99954.61;;;-1.58;100.00
35291;BME280;21411;50.024;19.220;2023-02-15T23:36:55;99955.14;;;-1.62;100.00
35291;BME280;21411;50.024;19.220;2023-02-15T23:39:26;99951.84;;;-1.64;100.00
35291;BME280;21411;50.024;19.220;2023-02-15T23:42:14;99952.89;;;-1.69;100.00
35291;BME280;21411;50.024;19.220;2023-02-15T23:44:45;99949.94;;;-1.74;100.00
35291;BME280;21411;50.024;19.220;2023-02-15T23:47:22;99949.25;;;-1.79;100.00
35291;BME280;21411;50.024;19.220;2023-02-15T23:50:29;99947.52;;;-1.85;100.00
35291;BME280;21411;50.024;19.220;2023-02-15T23:52:56;99944.04;;;-1.89;100.00
35291;BME280;21411;50.024;19.220;2023-02-15T23:55:27;99940.39;;;-1.93;100.00
35291;BME280;21411;50.024;19.220;2023-02-15T23:57:58;99938.30;;;-1.95;100.00
